Longville, MN

5:34 PM CDT on March 29, 2015 (GMT -0500)
Pine River Regional | | Change Station
CLOSE
Current Station
Airport
Location: Pine River,
Elevation: 1296 ft
Nearby Weather Stations

Elev 1296 ft 46.72 °N, 94.38 °W | Updated 20 minutes ago

Mostly Cloudy
Mostly Cloudy
46 °F
Feels Like 40 °F
N
16
Wind Variable Wind from NW
Gusts 30 mph

Today
High -- | Low -- °F
--% Chance of Precip.
Yesterday
High -- | Low -- °F
Precip. -- in
7:02 AM 7:41 PM
Waxing Gibbous, 74% visible
Pressure 29.85 in
Visibility 10.0 miles
Clouds Scattered Clouds 5000 ft
Mostly Cloudy 6500 ft
Mostly Cloudy 7000 ft
Windchill 40 °F
Dew Point 28 °F
Humidity 50%
Rainfall 0.15 in
Snow Depth Not available.
UV 1 out of 12
Pollen .90 out of 12
Air Quality Not available.
Flu Activity Not available.
METAR KPWC 292214Z AUTO 32014G26KT 10SM SCT050 BKN065 BKN070 08/M02 A2985 RMK AO2

More Conditions Fewer Conditions

Pressure 29.85 in
Visibility 10.0 miles
Clouds Scattered Clouds 5000 ft
Mostly Cloudy 6500 ft
Mostly Cloudy 7000 ft
Windchill 40 °F
Dew Point 28 °F
Humidity 50%
Rainfall 0.15 in
Snow Depth Not available.
UV 1 out of 12
Pollen .90 out of 12
Air Quality Not available.
Flu Activity Not available.
METAR KPWC 292214Z AUTO 32014G26KT 10SM SCT050 BKN065 BKN070 08/M02 A2985 RMK AO2

More Conditions Fewer Conditions

10-Day Weather Forecast

Almanac

Astronomy

Mar. 29, 2015 Rise Set
Actual Time
Civil Twilight
Nautical Twilight
Astronomical Twilight
Moon
Length of Visible Light
Length of Day
Tomorrow will be .
, % of the Moon is Illuminated

Today's Extremes

State Highs State Lows

Community

WunderPhotos

Upload Photos

1,809,376 photos uploaded!

WunderBlogs® & News

Nearby

Air Quality

  Air Quality AQ Index Pollutant
Not available.

Snow Depth

Station Depth Elevation

Earthquake Activity

City Distance Mag. Time & Date
Minimum magnitude displayed is 2.5.

Coastal Water Temperatures

Place Temperature

Stations

Nearby Weather Stations

Station Location Temp. Windchill Dew Point Humidity Wind Precip. Elev Updated Type